sensor_id;sensor_type;location;lat;lon;timestamp;P1;durP1;ratioP1;P2;durP2;ratioP2
29320;SDS011;16323;51.130;6.612;2023-02-13T00:00:01;3.58;;;2.20;;
29320;SDS011;16323;51.130;6.612;2023-02-13T00:02:29;3.63;;;2.50;;
29320;SDS011;16323;51.130;6.612;2023-02-13T00:04:56;3.72;;;2.70;;
29320;SDS011;16323;51.130;6.612;2023-02-13T00:07:23;4.13;;;2.53;;
29320;SDS011;16323;51.130;6.612;2023-02-13T00:09:50;3.60;;;2.20;;
29320;SDS011;16323;51.130;6.612;2023-02-13T00:12:18;4.15;;;2.47;;
29320;SDS011;16323;51.130;6.612;2023-02-13T00:14:45;3.50;;;2.33;;
29320;SDS011;16323;51.130;6.612;2023-02-13T00:17:12;3.97;;;2.35;;
29320;SDS011;16323;51.130;6.612;2023-02-13T00:19:38;4.03;;;2.75;;
29320;SDS011;16323;51.130;6.612;2023-02-13T00:22:05;4.22;;;2.55;;
29320;SDS011;16323;51.130;6.612;2023-02-13T00:24:32;3.85;;;2.63;;
29320;SDS011;16323;51.130;6.612;2023-02-13T00:26:59;3.55;;;2.55;;
29320;SDS011;16323;51.130;6.612;2023-02-13T00:29:27;4.85;;;2.75;;
29320;SDS011;16323;51.130;6.612;2023-02-13T00:31:54;5.18;;;2.45;;
29320;SDS011;16323;51.130;6.612;2023-02-13T00:34:21;3.40;;;2.30;;
29320;SDS011;16323;51.130;6.612;2023-02-13T00:36:48;3.85;;;2.20;;
29320;SDS011;16323;51.130;6.612;2023-02-13T00:39:16;5.20;;;2.95;;
29320;SDS011;16323;51.130;6.612;2023-02-13T00:41:42;4.38;;;2.72;;
29320;SDS011;16323;51.130;6.612;2023-02-13T00:44:09;4.35;;;2.58;;
29320;SDS011;16323;51.130;6.612;2023-02-13T00:46:38;3.65;;;2.70;;
29320;SDS011;16323;51.130;6.612;2023-02-13T00:49:05;3.53;;;2.60;;
29320;SDS011;16323;51.130;6.612;2023-02-13T00:51:32;3.92;;;3.00;;
29320;SDS011;16323;51.130;6.612;2023-02-13T00:53:59;4.72;;;2.83;;
29320;SDS011;16323;51.130;6.612;2023-02-13T00:56:26;3.95;;;2.60;;
29320;SDS011;16323;51.130;6.612;2023-02-13T00:58:53;5.10;;;2.80;;
29320;SDS011;16323;51.130;6.612;2023-02-13T01:01:20;4.55;;;2.92;;
29320;SDS011;16323;51.130;6.612;2023-02-13T01:03:48;4.03;;;2.60;;
29320;SDS011;16323;51.130;6.612;2023-02-13T01:06:15;3.83;;;2.60;;
29320;SDS011;16323;51.130;6.612;2023-02-13T01:08:42;4.05;;;2.72;;
29320;SDS011;16323;51.130;6.612;2023-02-13T01:11:08;4.80;;;3.35;;
29320;SDS011;16323;51.130;6.612;2023-02-13T01:13:35;3.78;;;2.70;;
29320;SDS011;16323;51.130;6.612;2023-02-13T01:16:02;5.07;;;2.70;;
29320;SDS011;16323;51.130;6.612;2023-02-13T01:18:29;4.80;;;2.97;;
29320;SDS011;16323;51.130;6.612;2023-02-13T01:20:59;5.03;;;2.83;;
29320;SDS011;16323;51.130;6.612;2023-02-13T01:23:30;3.65;;;2.78;;
29320;SDS011;16323;51.130;6.612;2023-02-13T01:25:58;3.80;;;2.58;;
29320;SDS011;16323;51.130;6.612;2023-02-13T01:28:25;4.82;;;3.10;;
29320;SDS011;16323;51.130;6.612;2023-02-13T01:30:52;5.32;;;3.05;;
29320;SDS011;16323;51.130;6.612;2023-02-13T01:33:19;4.78;;;3.20;;
29320;SDS011;16323;51.130;6.612;2023-02-13T01:35:46;5.88;;;3.53;;
29320;SDS011;16323;51.130;6.612;2023-02-13T01:38:15;4.85;;;2.88;;
29320;SDS011;16323;51.130;6.612;2023-02-13T01:40:45;4.15;;;2.85;;
29320;SDS011;16323;51.130;6.612;2023-02-13T01:43:12;4.90;;;2.85;;
29320;SDS011;16323;51.130;6.612;2023-02-13T01:45:40;5.75;;;3.45;;
29320;SDS011;16323;51.130;6.612;2023-02-13T01:48:11;4.82;;;3.03;;
29320;SDS011;16323;51.130;6.612;2023-02-13T01:50:42;5.18;;;3.17;;
29320;SDS011;16323;51.130;6.612;2023-02-13T01:53:15;4.72;;;3.08;;
29320;SDS011;16323;51.130;6.612;2023-02-13T01:55:46;6.63;;;3.28;;
29320;SDS011;16323;51.130;6.612;2023-02-13T01:58:18;4.82;;;2.92;;
29320;SDS011;16323;51.130;6.612;2023-02-13T02:00:49;5.18;;;3.58;;
29320;SDS011;16323;51.130;6.612;2023-02-13T02:03:18;6.05;;;3.58;;
29320;SDS011;16323;51.130;6.612;2023-02-13T02:05:51;6.10;;;3.22;;
29320;SDS011;16323;51.130;6.612;2023-02-13T02:08:23;5.22;;;3.25;;
29320;SDS011;16323;51.130;6.612;2023-02-13T02:10:50;5.32;;;3.30;;
29320;SDS011;16323;51.130;6.612;2023-02-13T02:13:18;4.80;;;2.83;;
29320;SDS011;16323;51.130;6.612;2023-02-13T02:15:46;4.75;;;3.03;;
29320;SDS011;16323;51.130;6.612;2023-02-13T02:18:14;5.35;;;3.15;;
29320;SDS011;16323;51.130;6.612;2023-02-13T02:20:45;4.93;;;2.88;;
29320;SDS011;16323;51.130;6.612;2023-02-13T02:23:37;5.05;;;3.20;;
29320;SDS011;16323;51.130;6.612;2023-02-13T02:26:34;5.40;;;3.30;;
29320;SDS011;16323;51.130;6.612;2023-02-13T02:29:49;5.25;;;2.90;;
29320;SDS011;16323;51.130;6.612;2023-02-13T02:32:43;5.07;;;2.75;;
29320;SDS011;16323;51.130;6.612;2023-02-13T02:35:18;5.25;;;3.00;;
29320;SDS011;16323;51.130;6.612;2023-02-13T02:38:01;5.05;;;2.85;;
29320;SDS011;16323;51.130;6.612;2023-02-13T02:40:36;4.35;;;2.97;;
29320;SDS011;16323;51.130;6.612;2023-02-13T02:43:15;4.45;;;2.65;;
29320;SDS011;16323;51.130;6.612;2023-02-13T02:45:55;3.85;;;2.53;;
29320;SDS011;16323;51.130;6.612;2023-02-13T02:48:31;4.72;;;2.92;;
29320;SDS011;16323;51.130;6.612;2023-02-13T02:51:22;3.53;;;2.63;;
29320;SDS011;16323;51.130;6.612;2023-02-13T02:53:54;4.32;;;2.88;;
29320;SDS011;16323;51.130;6.612;2023-02-13T02:56:48;3.45;;;2.42;;
29320;SDS011;16323;51.130;6.612;2023-02-13T02:59:16;5.18;;;3.20;;
29320;SDS011;16323;51.130;6.612;2023-02-13T03:02:05;4.63;;;2.70;;
29320;SDS011;16323;51.130;6.612;2023-02-13T03:04:53;4.18;;;2.78;;
29320;SDS011;16323;51.130;6.612;2023-02-13T03:07:40;3.65;;;2.42;;
29320;SDS011;16323;51.130;6.612;2023-02-13T03:10:09;4.13;;;2.75;;
29320;SDS011;16323;51.130;6.612;2023-02-13T03:12:56;3.05;;;2.35;;
29320;SDS011;16323;51.130;6.612;2023-02-13T03:15:47;3.95;;;2.78;;
29320;SDS011;16323;51.130;6.612;2023-02-13T03:18:35;3.67;;;2.20;;
29320;SDS011;16323;51.130;6.612;2023-02-13T03:21:25;4.40;;;2.65;;
29320;SDS011;16323;51.130;6.612;2023-02-13T03:24:19;4.28;;;2.80;;
29320;SDS011;16323;51.130;6.612;2023-02-13T03:26:54;4.60;;;3.00;;
29320;SDS011;16323;51.130;6.612;2023-02-13T03:29:29;4.10;;;2.70;;
29320;SDS011;16323;51.130;6.612;2023-02-13T03:32:24;4.47;;;3.28;;
29320;SDS011;16323;51.130;6.612;2023-02-13T03:35:06;3.80;;;2.63;;
29320;SDS011;16323;51.130;6.612;2023-02-13T03:38:04;5.30;;;3.30;;
29320;SDS011;16323;51.130;6.612;2023-02-13T03:40:39;5.10;;;3.17;;
29320;SDS011;16323;51.130;6.612;2023-02-13T03:43:25;3.75;;;2.47;;
29320;SDS011;16323;51.130;6.612;2023-02-13T03:45:57;3.80;;;2.40;;
29320;SDS011;16323;51.130;6.612;2023-02-13T03:48:28;4.60;;;2.85;;
29320;SDS011;16323;51.130;6.612;2023-02-13T03:51:17;3.88;;;2.65;;
29320;SDS011;16323;51.130;6.612;2023-02-13T03:53:49;4.63;;;2.80;;
29320;SDS011;16323;51.130;6.612;2023-02-13T03:56:20;3.95;;;2.60;;
29320;SDS011;16323;51.130;6.612;2023-02-13T04:01:43;3.45;;;2.55;;
29320;SDS011;16323;51.130;6.612;2023-02-13T04:04:16;3.75;;;2.63;;
29320;SDS011;16323;51.130;6.612;2023-02-13T04:06:49;3.90;;;2.70;;
29320;SDS011;16323;51.130;6.612;2023-02-13T04:09:21;4.35;;;2.70;;
29320;SDS011;16323;51.130;6.612;2023-02-13T04:11:50;4.15;;;2.70;;
29320;SDS011;16323;51.130;6.612;2023-02-13T04:14:22;3.90;;;2.90;;
29320;SDS011;16323;51.130;6.612;2023-02-13T04:16:54;5.68;;;3.40;;
29320;SDS011;16323;51.130;6.612;2023-02-13T04:19:24;4.30;;;2.83;;
29320;SDS011;16323;51.130;6.612;2023-02-13T04:21:54;3.95;;;2.80;;
29320;SDS011;16323;51.130;6.612;2023-02-13T04:24:24;5.15;;;3.08;;
29320;SDS011;16323;51.130;6.612;2023-02-13T04:26:51;3.55;;;2.63;;
29320;SDS011;16323;51.130;6.612;2023-02-13T04:29:19;4.57;;;3.17;;
29320;SDS011;16323;51.130;6.612;2023-02-13T04:31:47;5.47;;;3.05;;
29320;SDS011;16323;51.130;6.612;2023-02-13T04:34:14;4.75;;;3.15;;
29320;SDS011;16323;51.130;6.612;2023-02-13T04:36:41;5.00;;;3.10;;
29320;SDS011;16323;51.130;6.612;2023-02-13T04:39:08;5.40;;;3.17;;
29320;SDS011;16323;51.130;6.612;2023-02-13T04:41:37;3.83;;;2.72;;
29320;SDS011;16323;51.130;6.612;2023-02-13T04:44:04;5.70;;;2.97;;
29320;SDS011;16323;51.130;6.612;2023-02-13T04:46:31;4.70;;;2.90;;
29320;SDS011;16323;51.130;6.612;2023-02-13T04:48:57;4.63;;;3.00;;
29320;SDS011;16323;51.130;6.612;2023-02-13T04:51:24;4.50;;;2.97;;
29320;SDS011;16323;51.130;6.612;2023-02-13T04:53:51;4.60;;;2.90;;
29320;SDS011;16323;51.130;6.612;2023-02-13T04:56:18;4.93;;;3.00;;
29320;SDS011;16323;51.130;6.612;2023-02-13T04:58:46;5.30;;;3.28;;
29320;SDS011;16323;51.130;6.612;2023-02-13T05:01:13;5.82;;;3.40;;
29320;SDS011;16323;51.130;6.612;2023-02-13T05:03:41;5.70;;;3.08;;
29320;SDS011;16323;51.130;6.612;2023-02-13T05:06:07;5.50;;;3.13;;
29320;SDS011;16323;51.130;6.612;2023-02-13T05:08:34;5.30;;;3.20;;
29320;SDS011;16323;51.130;6.612;2023-02-13T05:11:01;5.75;;;3.40;;
29320;SDS011;16323;51.130;6.612;2023-02-13T05:13:28;4.47;;;3.08;;
29320;SDS011;16323;51.130;6.612;2023-02-13T05:15:56;5.40;;;2.90;;
29320;SDS011;16323;51.130;6.612;2023-02-13T05:18:23;5.20;;;2.70;;
29320;SDS011;16323;51.130;6.612;2023-02-13T05:20:50;4.47;;;2.70;;
29320;SDS011;16323;51.130;6.612;2023-02-13T05:23:30;5.50;;;3.38;;
29320;SDS011;16323;51.130;6.612;2023-02-13T05:25:58;4.72;;;3.42;;
29320;SDS011;16323;51.130;6.612;2023-02-13T05:28:24;4.20;;;2.90;;
29320;SDS011;16323;51.130;6.612;2023-02-13T05:31:10;5.32;;;3.28;;
29320;SDS011;16323;51.130;6.612;2023-02-13T05:33:37;5.15;;;3.17;;
29320;SDS011;16323;51.130;6.612;2023-02-13T05:36:04;4.35;;;2.88;;
29320;SDS011;16323;51.130;6.612;2023-02-13T05:38:32;4.90;;;3.20;;
29320;SDS011;16323;51.130;6.612;2023-02-13T05:40:59;3.72;;;2.92;;
29320;SDS011;16323;51.130;6.612;2023-02-13T05:43:26;4.10;;;3.03;;
29320;SDS011;16323;51.130;6.612;2023-02-13T05:45:59;4.28;;;3.00;;
29320;SDS011;16323;51.130;6.612;2023-02-13T05:48:29;5.07;;;3.35;;
29320;SDS011;16323;51.130;6.612;2023-02-13T05:50:56;5.32;;;3.40;;
29320;SDS011;16323;51.130;6.612;2023-02-13T05:53:23;6.43;;;3.42;;
29320;SDS011;16323;51.130;6.612;2023-02-13T05:55:49;5.07;;;3.20;;
29320;SDS011;16323;51.130;6.612;2023-02-13T05:58:17;4.82;;;3.17;;
29320;SDS011;16323;51.130;6.612;2023-02-13T06:00:44;4.28;;;3.25;;
29320;SDS011;16323;51.130;6.612;2023-02-13T06:03:11;5.93;;;3.17;;
29320;SDS011;16323;51.130;6.612;2023-02-13T06:05:39;5.38;;;3.35;;
29320;SDS011;16323;51.130;6.612;2023-02-13T06:08:06;5.80;;;3.75;;
29320;SDS011;16323;51.130;6.612;2023-02-13T06:10:32;4.32;;;3.17;;
29320;SDS011;16323;51.130;6.612;2023-02-13T06:12:59;4.70;;;3.17;;
29320;SDS011;16323;51.130;6.612;2023-02-13T06:15:26;4.68;;;3.08;;
29320;SDS011;16323;51.130;6.612;2023-02-13T06:17:53;4.80;;;3.28;;
29320;SDS011;16323;51.130;6.612;2023-02-13T06:20:19;5.15;;;3.33;;
29320;SDS011;16323;51.130;6.612;2023-02-13T06:22:48;4.88;;;3.45;;
29320;SDS011;16323;51.130;6.612;2023-02-13T06:25:15;5.18;;;3.67;;
29320;SDS011;16323;51.130;6.612;2023-02-13T06:27:42;4.85;;;2.95;;
29320;SDS011;16323;51.130;6.612;2023-02-13T06:30:09;5.05;;;3.30;;
29320;SDS011;16323;51.130;6.612;2023-02-13T06:32:37;4.30;;;3.13;;
29320;SDS011;16323;51.130;6.612;2023-02-13T06:35:04;4.22;;;2.80;;
29320;SDS011;16323;51.130;6.612;2023-02-13T06:37:31;5.90;;;3.17;;
29320;SDS011;16323;51.130;6.612;2023-02-13T06:40:00;6.07;;;3.42;;
29320;SDS011;16323;51.130;6.612;2023-02-13T06:42:27;3.88;;;3.00;;
29320;SDS011;16323;51.130;6.612;2023-02-13T06:44:54;4.60;;;3.42;;
29320;SDS011;16323;51.130;6.612;2023-02-13T06:47:20;5.78;;;3.38;;
29320;SDS011;16323;51.130;6.612;2023-02-13T06:49:47;5.43;;;3.50;;
29320;SDS011;16323;51.130;6.612;2023-02-13T06:52:14;4.63;;;3.05;;
29320;SDS011;16323;51.130;6.612;2023-02-13T06:54:41;5.07;;;3.58;;
29320;SDS011;16323;51.130;6.612;2023-02-13T06:57:09;5.82;;;3.70;;
29320;SDS011;16323;51.130;6.612;2023-02-13T06:59:36;5.38;;;3.45;;
29320;SDS011;16323;51.130;6.612;2023-02-13T07:02:02;6.95;;;4.22;;
29320;SDS011;16323;51.130;6.612;2023-02-13T07:04:29;6.35;;;4.20;;
29320;SDS011;16323;51.130;6.612;2023-02-13T07:06:56;6.85;;;4.20;;
29320;SDS011;16323;51.130;6.612;2023-02-13T07:09:23;7.10;;;4.07;;
29320;SDS011;16323;51.130;6.612;2023-02-13T07:11:50;5.65;;;4.00;;
29320;SDS011;16323;51.130;6.612;2023-02-13T07:14:18;5.47;;;3.97;;
29320;SDS011;16323;51.130;6.612;2023-02-13T07:16:45;6.88;;;4.15;;
29320;SDS011;16323;51.130;6.612;2023-02-13T07:19:11;6.53;;;4.10;;
29320;SDS011;16323;51.130;6.612;2023-02-13T07:21:38;5.90;;;4.25;;
29320;SDS011;16323;51.130;6.612;2023-02-13T07:24:05;5.18;;;3.63;;
29320;SDS011;16323;51.130;6.612;2023-02-13T07:26:32;5.43;;;3.85;;
29320;SDS011;16323;51.130;6.612;2023-02-13T07:28:59;5.22;;;3.83;;
29320;SDS011;16323;51.130;6.612;2023-02-13T07:31:31;6.03;;;4.10;;
29320;SDS011;16323;51.130;6.612;2023-02-13T07:33:58;7.72;;;4.03;;
29320;SDS011;16323;51.130;6.612;2023-02-13T07:36:24;5.68;;;3.53;;
29320;SDS011;16323;51.130;6.612;2023-02-13T07:38:51;4.38;;;3.28;;
29320;SDS011;16323;51.130;6.612;2023-02-13T07:41:18;6.07;;;3.60;;
29320;SDS011;16323;51.130;6.612;2023-02-13T07:43:45;6.15;;;3.67;;
29320;SDS011;16323;51.130;6.612;2023-02-13T07:46:12;5.43;;;3.10;;
29320;SDS011;16323;51.130;6.612;2023-02-13T07:48:40;5.20;;;3.35;;
29320;SDS011;16323;51.130;6.612;2023-02-13T07:51:07;4.90;;;3.05;;
29320;SDS011;16323;51.130;6.612;2023-02-13T07:53:34;5.38;;;3.05;;
29320;SDS011;16323;51.130;6.612;2023-02-13T07:56:04;6.03;;;3.03;;
29320;SDS011;16323;51.130;6.612;2023-02-13T07:58:31;5.72;;;3.58;;
29320;SDS011;16323;51.130;6.612;2023-02-13T08:00:58;4.55;;;3.28;;
29320;SDS011;16323;51.130;6.612;2023-02-13T08:03:31;4.18;;;2.75;;
29320;SDS011;16323;51.130;6.612;2023-02-13T08:05:59;5.70;;;3.30;;
29320;SDS011;16323;51.130;6.612;2023-02-13T08:08:26;4.18;;;3.22;;
29320;SDS011;16323;51.130;6.612;2023-02-13T08:10:53;7.30;;;3.58;;
29320;SDS011;16323;51.130;6.612;2023-02-13T08:13:37;6.32;;;3.45;;
29320;SDS011;16323;51.130;6.612;2023-02-13T08:16:04;4.95;;;2.90;;
29320;SDS011;16323;51.130;6.612;2023-02-13T08:18:31;5.13;;;3.15;;
29320;SDS011;16323;51.130;6.612;2023-02-13T08:21:01;5.95;;;3.55;;
29320;SDS011;16323;51.130;6.612;2023-02-13T08:23:28;5.45;;;3.40;;
29320;SDS011;16323;51.130;6.612;2023-02-13T08:25:57;5.63;;;3.67;;
29320;SDS011;16323;51.130;6.612;2023-02-13T08:28:25;4.18;;;3.10;;
29320;SDS011;16323;51.130;6.612;2023-02-13T08:30:52;5.18;;;3.55;;
29320;SDS011;16323;51.130;6.612;2023-02-13T08:33:19;5.68;;;3.15;;
29320;SDS011;16323;51.130;6.612;2023-02-13T08:35:46;5.03;;;3.30;;
29320;SDS011;16323;51.130;6.612;2023-02-13T08:38:14;6.07;;;3.35;;
29320;SDS011;16323;51.130;6.612;2023-02-13T08:40:41;6.28;;;3.78;;
29320;SDS011;16323;51.130;6.612;2023-02-13T08:43:08;5.35;;;3.33;;
29320;SDS011;16323;51.130;6.612;2023-02-13T08:45:35;5.55;;;3.70;;
29320;SDS011;16323;51.130;6.612;2023-02-13T08:48:02;5.07;;;3.30;;
29320;SDS011;16323;51.130;6.612;2023-02-13T08:50:29;6.93;;;3.47;;
29320;SDS011;16323;51.130;6.612;2023-02-13T08:52:58;31.45;;;5.25;;
29320;SDS011;16323;51.130;6.612;2023-02-13T08:55:27;8.60;;;3.22;;
29320;SDS011;16323;51.130;6.612;2023-02-13T08:57:57;7.28;;;3.05;;
29320;SDS011;16323;51.130;6.612;2023-02-13T09:00:25;5.85;;;2.60;;
29320;SDS011;16323;51.130;6.612;2023-02-13T09:02:52;7.45;;;3.08;;
29320;SDS011;16323;51.130;6.612;2023-02-13T09:05:18;9.88;;;3.42;;
29320;SDS011;16323;51.130;6.612;2023-02-13T09:07:45;5.15;;;3.05;;
29320;SDS011;16323;51.130;6.612;2023-02-13T09:10:12;5.53;;;3.10;;
29320;SDS011;16323;51.130;6.612;2023-02-13T09:12:40;4.40;;;2.78;;
29320;SDS011;16323;51.130;6.612;2023-02-13T09:15:07;5.93;;;3.35;;
29320;SDS011;16323;51.130;6.612;2023-02-13T09:17:35;4.90;;;2.58;;
29320;SDS011;16323;51.130;6.612;2023-02-13T09:20:02;4.93;;;3.20;;
29320;SDS011;16323;51.130;6.612;2023-02-13T09:26:03;5.72;;;2.17;;
29320;SDS011;16323;51.130;6.612;2023-02-13T09:28:33;3.50;;;2.20;;
29320;SDS011;16323;51.130;6.612;2023-02-13T09:31:03;3.53;;;2.05;;
29320;SDS011;16323;51.130;6.612;2023-02-13T09:33:31;3.17;;;1.85;;
29320;SDS011;16323;51.130;6.612;2023-02-13T09:36:02;5.97;;;2.20;;
29320;SDS011;16323;51.130;6.612;2023-02-13T09:38:29;3.38;;;2.20;;
29320;SDS011;16323;51.130;6.612;2023-02-13T09:40:57;2.97;;;1.60;;
29320;SDS011;16323;51.130;6.612;2023-02-13T09:43:26;5.10;;;1.80;;
29320;SDS011;16323;51.130;6.612;2023-02-13T09:45:57;2.95;;;1.80;;
29320;SDS011;16323;51.130;6.612;2023-02-13T09:48:28;5.47;;;1.60;;
29320;SDS011;16323;51.130;6.612;2023-02-13T09:50:56;2.35;;;1.75;;
29320;SDS011;16323;51.130;6.612;2023-02-13T09:53:24;2.92;;;1.70;;
29320;SDS011;16323;51.130;6.612;2023-02-13T09:55:55;2.28;;;1.50;;
29320;SDS011;16323;51.130;6.612;2023-02-13T10:01:22;2.25;;;1.45;;
29320;SDS011;16323;51.130;6.612;2023-02-13T10:03:58;2.35;;;1.75;;
29320;SDS011;16323;51.130;6.612;2023-02-13T10:06:48;5.47;;;2.40;;
29320;SDS011;16323;51.130;6.612;2023-02-13T10:09:28;5.22;;;2.75;;
29320;SDS011;16323;51.130;6.612;2023-02-13T10:12:12;3.03;;;1.90;;
29320;SDS011;16323;51.130;6.612;2023-02-13T10:15:40;8.02;;;2.15;;
29320;SDS011;16323;51.130;6.612;2023-02-13T10:18:16;32.35;;;4.25;;
29320;SDS011;16323;51.130;6.612;2023-02-13T10:20:45;17.90;;;2.45;;
29320;SDS011;16323;51.130;6.612;2023-02-13T10:23:17;4.18;;;1.90;;
29320;SDS011;16323;51.130;6.612;2023-02-13T10:25:49;4.75;;;1.88;;
29320;SDS011;16323;51.130;6.612;2023-02-13T10:28:24;7.82;;;2.17;;
29320;SDS011;16323;51.130;6.612;2023-02-13T10:31:01;9.48;;;2.08;;
29320;SDS011;16323;51.130;6.612;2023-02-13T10:33:33;2.95;;;1.48;;
29320;SDS011;16323;51.130;6.612;2023-02-13T10:36:08;5.53;;;1.90;;
29320;SDS011;16323;51.130;6.612;2023-02-13T10:38:42;7.72;;;2.08;;
29320;SDS011;16323;51.130;6.612;2023-02-13T10:41:22;3.47;;;1.90;;
29320;SDS011;16323;51.130;6.612;2023-02-13T10:44:02;8.10;;;2.35;;
29320;SDS011;16323;51.130;6.612;2023-02-13T10:46:40;5.47;;;1.67;;
29320;SDS011;16323;51.130;6.612;2023-02-13T10:49:27;4.55;;;1.65;;
29320;SDS011;16323;51.130;6.612;2023-02-13T10:52:09;2.35;;;1.50;;
29320;SDS011;16323;51.130;6.612;2023-02-13T10:54:54;4.30;;;1.60;;
29320;SDS011;16323;51.130;6.612;2023-02-13T10:57:47;4.68;;;1.80;;
29320;SDS011;16323;51.130;6.612;2023-02-13T11:00:33;8.75;;;2.92;;
29320;SDS011;16323;51.130;6.612;2023-02-13T11:03:03;4.85;;;1.90;;
29320;SDS011;16323;51.130;6.612;2023-02-13T11:05:32;3.97;;;2.10;;
29320;SDS011;16323;51.130;6.612;2023-02-13T11:08:04;4.22;;;1.65;;
29320;SDS011;16323;51.130;6.612;2023-02-13T11:10:42;2.53;;;1.52;;
29320;SDS011;16323;51.130;6.612;2023-02-13T11:13:13;3.30;;;1.80;;
29320;SDS011;16323;51.130;6.612;2023-02-13T11:15:42;2.63;;;1.80;;
29320;SDS011;16323;51.130;6.612;2023-02-13T11:18:22;3.88;;;2.13;;
29320;SDS011;16323;51.130;6.612;2023-02-13T11:20:58;2.75;;;1.65;;
29320;SDS011;16323;51.130;6.612;2023-02-13T11:23:35;2.28;;;1.50;;
29320;SDS011;16323;51.130;6.612;2023-02-13T11:26:06;3.47;;;1.70;;
29320;SDS011;16323;51.130;6.612;2023-02-13T11:28:36;5.03;;;1.55;;
29320;SDS011;16323;51.130;6.612;2023-02-13T11:31:15;3.65;;;1.63;;
29320;SDS011;16323;51.130;6.612;2023-02-13T11:33:47;4.50;;;1.83;;
29320;SDS011;16323;51.130;6.612;2023-02-13T11:36:16;2.35;;;1.88;;
29320;SDS011;16323;51.130;6.612;2023-02-13T11:38:56;4.90;;;2.40;;
29320;SDS011;16323;51.130;6.612;2023-02-13T11:41:24;2.78;;;1.90;;
29320;SDS011;16323;51.130;6.612;2023-02-13T11:43:52;3.15;;;2.20;;
29320;SDS011;16323;51.130;6.612;2023-02-13T11:46:25;3.13;;;1.92;;
29320;SDS011;16323;51.130;6.612;2023-02-13T11:48:55;3.58;;;2.17;;
29320;SDS011;16323;51.130;6.612;2023-02-13T11:51:41;10.98;;;3.05;;
29320;SDS011;16323;51.130;6.612;2023-02-13T11:56:59;6.88;;;2.58;;
29320;SDS011;16323;51.130;6.612;2023-02-13T11:59:29;2.78;;;1.77;;
29320;SDS011;16323;51.130;6.612;2023-02-13T12:02:02;3.40;;;1.92;;
29320;SDS011;16323;51.130;6.612;2023-02-13T12:04:38;4.05;;;2.20;;
29320;SDS011;16323;51.130;6.612;2023-02-13T12:07:11;4.82;;;2.30;;
29320;SDS011;16323;51.130;6.612;2023-02-13T12:09:41;4.22;;;2.05;;
29320;SDS011;16323;51.130;6.612;2023-02-13T12:12:11;2.80;;;2.05;;
29320;SDS011;16323;51.130;6.612;2023-02-13T12:14:44;3.40;;;2.03;;
29320;SDS011;16323;51.130;6.612;2023-02-13T12:17:11;4.05;;;1.98;;
29320;SDS011;16323;51.130;6.612;2023-02-13T12:19:42;4.13;;;1.85;;
29320;SDS011;16323;51.130;6.612;2023-02-13T12:22:25;3.25;;;1.92;;
29320;SDS011;16323;51.130;6.612;2023-02-13T12:25:02;3.53;;;2.03;;
29320;SDS011;16323;51.130;6.612;2023-02-13T12:27:56;4.85;;;2.30;;
29320;SDS011;16323;51.130;6.612;2023-02-13T12:33:42;3.97;;;2.20;;
29320;SDS011;16323;51.130;6.612;2023-02-13T12:36:30;2.65;;;1.77;;
29320;SDS011;16323;51.130;6.612;2023-02-13T12:39:13;3.63;;;1.77;;
29320;SDS011;16323;51.130;6.612;2023-02-13T12:41:46;5.15;;;2.28;;
29320;SDS011;16323;51.130;6.612;2023-02-13T12:47:14;4.15;;;2.30;;
29320;SDS011;16323;51.130;6.612;2023-02-13T12:49:48;3.08;;;1.70;;
29320;SDS011;16323;51.130;6.612;2023-02-13T12:52:39;3.20;;;2.00;;
29320;SDS011;16323;51.130;6.612;2023-02-13T12:55:18;2.72;;;1.70;;
29320;SDS011;16323;51.130;6.612;2023-02-13T12:58:02;2.63;;;1.80;;
29320;SDS011;16323;51.130;6.612;2023-02-13T13:00:41;4.05;;;2.30;;
29320;SDS011;16323;51.130;6.612;2023-02-13T13:03:19;3.40;;;1.90;;
29320;SDS011;16323;51.130;6.612;2023-02-13T13:06:12;3.03;;;1.90;;
29320;SDS011;16323;51.130;6.612;2023-02-13T13:11:46;4.47;;;2.05;;
29320;SDS011;16323;51.130;6.612;2023-02-13T13:14:29;4.03;;;1.92;;
29320;SDS011;16323;51.130;6.612;2023-02-13T13:17:02;3.17;;;1.90;;
29320;SDS011;16323;51.130;6.612;2023-02-13T13:19:35;2.50;;;1.70;;
29320;SDS011;16323;51.130;6.612;2023-02-13T13:22:11;3.67;;;2.00;;
29320;SDS011;16323;51.130;6.612;2023-02-13T13:24:47;2.85;;;2.03;;
29320;SDS011;16323;51.130;6.612;2023-02-13T13:27:21;2.72;;;1.77;;
29320;SDS011;16323;51.130;6.612;2023-02-13T13:29:50;4.70;;;2.08;;
29320;SDS011;16323;51.130;6.612;2023-02-13T13:32:20;3.80;;;2.33;;
29320;SDS011;16323;51.130;6.612;2023-02-13T13:34:48;4.07;;;2.03;;
29320;SDS011;16323;51.130;6.612;2023-02-13T13:37:18;2.42;;;1.65;;
29320;SDS011;16323;51.130;6.612;2023-02-13T13:39:56;3.05;;;1.92;;
29320;SDS011;16323;51.130;6.612;2023-02-13T13:42:29;1.90;;;1.50;;
29320;SDS011;16323;51.130;6.612;2023-02-13T13:47:57;3.00;;;1.52;;
29320;SDS011;16323;51.130;6.612;2023-02-13T13:50:35;3.50;;;1.80;;
29320;SDS011;16323;51.130;6.612;2023-02-13T13:53:10;2.53;;;1.85;;
29320;SDS011;16323;51.130;6.612;2023-02-13T13:58:34;3.35;;;1.65;;
29320;SDS011;16323;51.130;6.612;2023-02-13T14:01:16;4.43;;;1.95;;
29320;SDS011;16323;51.130;6.612;2023-02-13T14:03:48;3.78;;;1.80;;
29320;SDS011;16323;51.130;6.612;2023-02-13T14:06:17;2.97;;;1.90;;
29320;SDS011;16323;51.130;6.612;2023-02-13T14:08:52;2.17;;;1.45;;
29320;SDS011;16323;51.130;6.612;2023-02-13T14:20:31;2.10;;;1.73;;
29320;SDS011;16323;51.130;6.612;2023-02-13T14:28:38;2.38;;;1.73;;
29320;SDS011;16323;51.130;6.612;2023-02-13T14:31:07;1.83;;;1.52;;
29320;SDS011;16323;51.130;6.612;2023-02-13T14:33:40;3.10;;;1.65;;
29320;SDS011;16323;51.130;6.612;2023-02-13T14:36:16;2.03;;;1.58;;
29320;SDS011;16323;51.130;6.612;2023-02-13T14:38:53;2.70;;;1.85;;
29320;SDS011;16323;51.130;6.612;2023-02-13T14:41:41;2.22;;;1.65;;
29320;SDS011;16323;51.130;6.612;2023-02-13T14:44:13;3.38;;;1.98;;
29320;SDS011;16323;51.130;6.612;2023-02-13T14:46:43;4.72;;;1.77;;
29320;SDS011;16323;51.130;6.612;2023-02-13T14:49:13;2.35;;;1.55;;
29320;SDS011;16323;51.130;6.612;2023-02-13T14:51:46;3.13;;;1.60;;
29320;SDS011;16323;51.130;6.612;2023-02-13T14:54:17;1.95;;;1.35;;
29320;SDS011;16323;51.130;6.612;2023-02-13T14:56:49;3.22;;;1.75;;
29320;SDS011;16323;51.130;6.612;2023-02-13T14:59:19;3.20;;;1.50;;
29320;SDS011;16323;51.130;6.612;2023-02-13T15:01:49;5.30;;;1.90;;
29320;SDS011;16323;51.130;6.612;2023-02-13T15:04:23;2.30;;;1.52;;
29320;SDS011;16323;51.130;6.612;2023-02-13T15:06:56;2.35;;;1.45;;
29320;SDS011;16323;51.130;6.612;2023-02-13T15:09:29;3.58;;;1.77;;
29320;SDS011;16323;51.130;6.612;2023-02-13T15:11:59;2.70;;;1.65;;
29320;SDS011;16323;51.130;6.612;2023-02-13T15:14:30;3.92;;;1.52;;
29320;SDS011;16323;51.130;6.612;2023-02-13T15:17:00;2.42;;;1.55;;
29320;SDS011;16323;51.130;6.612;2023-02-13T15:19:31;2.58;;;1.30;;
29320;SDS011;16323;51.130;6.612;2023-02-13T15:22:02;1.77;;;1.15;;
29320;SDS011;16323;51.130;6.612;2023-02-13T15:24:34;2.20;;;1.30;;
29320;SDS011;16323;51.130;6.612;2023-02-13T15:27:12;2.45;;;1.67;;
29320;SDS011;16323;51.130;6.612;2023-02-13T15:29:58;1.85;;;1.33;;
29320;SDS011;16323;51.130;6.612;2023-02-13T15:32:31;2.33;;;1.38;;
29320;SDS011;16323;51.130;6.612;2023-02-13T15:35:00;1.90;;;1.27;;
29320;SDS011;16323;51.130;6.612;2023-02-13T15:37:36;1.40;;;1.20;;
29320;SDS011;16323;51.130;6.612;2023-02-13T15:40:13;1.30;;;1.05;;
29320;SDS011;16323;51.130;6.612;2023-02-13T15:42:40;1.63;;;1.20;;
29320;SDS011;16323;51.130;6.612;2023-02-13T15:45:11;2.08;;;1.13;;
29320;SDS011;16323;51.130;6.612;2023-02-13T15:47:40;1.50;;;1.13;;
29320;SDS011;16323;51.130;6.612;2023-02-13T15:50:13;1.88;;;1.25;;
29320;SDS011;16323;51.130;6.612;2023-02-13T15:52:46;2.75;;;1.35;;
29320;SDS011;16323;51.130;6.612;2023-02-13T15:55:17;1.52;;;1.10;;
29320;SDS011;16323;51.130;6.612;2023-02-13T15:57:45;1.60;;;1.20;;